Live aus Altenrhein
LIVE
LSZR 281150Z 24005KT 210V280 6000 -RA SCT011 OVC016 03/02 Q1015 NOSIG RMK H

People´s Info Center:

Öffnungszeiten Mo-Fr, 8-18 Uhr

 

info@peoples.ch

 
Aus Österreich:

T: +43 (0)5572 203 610

 

Aus CH / LI / DE:

T: +41 (0)71 858 51 60

 

Organisationsstruktur

People's Air Group

 

Die People's Air Group umfasst die Altenrhein Realco AG (Immobilien), die Altenrhein Luftfahrt GmbH und die Airport Altenrhein AG.

 

Die Altenrhein Luftfahrt GmbH mit Hauptsitz in Wien betreibt seit 2011 die People's Viennaline mit bis zu vier täglichen Flügen zwischen Altenrhein und Wien sowie zahlreiche Ferienflüge ab Altenrhein. Die zwei eingesetzten Embraer 170 mit 76 Sitzplätzen gehören zu den modernsten Regionaljets.

 

Der Flughafen St. Gallen Altenrhein wird von der Airport Altenrhein AG betrieben und ist der Regionalflughafen für die Ostschweiz, Vorarlberg und Liechtenstein. Über 100'000 Passagiere nutzen jährlich den Flughafen am Bodensee, mit den kürzesten Check-In Zeiten der Schweiz.